createdAt,value
2018-05-31T00:00:12.252Z,99.99
2018-05-31T00:01:12.038Z,99.99
2018-05-31T00:02:13.060Z,99.99
2018-05-31T00:03:12.481Z,99.99
2018-05-31T00:04:12.488Z,99.99
2018-05-31T00:05:12.670Z,99.99
2018-05-31T00:06:12.885Z,99.99
2018-05-31T00:07:13.201Z,99.99
2018-05-31T00:08:13.192Z,99.99
2018-05-31T00:09:13.369Z,99.88
2018-05-31T00:10:13.697Z,99.99
2018-05-31T00:11:13.396Z,99.98
2018-05-31T00:12:13.833Z,99.3
2018-05-31T00:13:13.562Z,99.49
2018-05-31T00:14:13.610Z,99.06
2018-05-31T00:15:14.318Z,98.49
2018-05-31T00:16:14.389Z,99.44
2018-05-31T00:17:14.593Z,98.29
2018-05-31T00:18:14.749Z,98.1
2018-05-31T00:19:14.797Z,98.68
2018-05-31T00:20:15.156Z,99.16
2018-05-31T00:21:16.519Z,99.49
2018-05-31T00:22:15.668Z,99.98
2018-05-31T00:23:15.998Z,99.49
2018-05-31T00:24:16.181Z,99.59
2018-05-31T00:25:16.460Z,99.01
2018-05-31T00:26:16.299Z,98.82
2018-05-31T00:27:16.286Z,98.44
2018-05-31T00:28:16.461Z,98.91
2018-05-31T00:29:16.740Z,98.44
2018-05-31T00:30:17.334Z,97.96
2018-05-31T00:31:16.796Z,98.63
2018-05-31T00:32:16.816Z,98.91
2018-05-31T00:33:17.289Z,98.91
2018-05-31T00:34:17.293Z,99.11
2018-05-31T00:35:17.195Z,99.49
2018-05-31T00:36:17.672Z,99.49
2018-05-31T00:37:17.995Z,99.01
2018-05-31T00:38:18.429Z,98.63
2018-05-31T00:39:18.404Z,98.82
2018-05-31T00:40:18.722Z,98.24
2018-05-31T00:41:18.761Z,97.67
2018-05-31T00:42:18.505Z,97.57
2018-05-31T00:43:19.001Z,97.57
2018-05-31T00:44:18.994Z,97.19
2018-05-31T00:45:19.159Z,97.57
2018-05-31T00:46:19.557Z,97.47
2018-05-31T00:47:19.889Z,97.57
2018-05-31T00:48:20.088Z,97.57
2018-05-31T00:49:20.766Z,97.47
2018-05-31T00:50:20.137Z,97.28
2018-05-31T00:51:20.187Z,97.19
2018-05-31T00:52:20.231Z,97.47
2018-05-31T00:53:20.082Z,97.28
2018-05-31T00:54:21.048Z,97.67
2018-05-31T00:55:21.360Z,96.99
2018-05-31T00:56:21.433Z,97.09
2018-05-31T00:57:21.464Z,97.67
2018-05-31T00:58:21.810Z,97.67
2018-05-31T00:59:22.339Z,97.47
2018-05-31T01:00:22.329Z,97.38
2018-05-31T01:01:22.071Z,97.19
2018-05-31T01:02:22.268Z,98.82
2018-05-31T01:03:22.741Z,97.57
2018-05-31T01:04:22.759Z,97.67
2018-05-31T01:05:22.522Z,97.86
2018-05-31T01:06:22.560Z,98.05
2018-05-31T01:07:22.585Z,98.24
2018-05-31T01:08:23.610Z,98.44
2018-05-31T01:09:23.063Z,98.14
2018-05-31T01:10:23.113Z,97.38
2018-05-31T01:11:23.266Z,97.47
2018-05-31T01:12:23.442Z,97.96
2018-05-31T01:13:24.031Z,98.63
2018-05-31T01:14:24.096Z,98.72
2018-05-31T01:15:24.092Z,99.01
2018-05-31T01:16:24.555Z,98.96
2018-05-31T01:17:25.127Z,99.49
2018-05-31T01:18:24.644Z,99.99
2018-05-31T01:19:24.639Z,99.99
2018-05-31T01:20:24.692Z,99.99
2018-05-31T01:21:24.869Z,99.99
2018-05-31T01:22:25.305Z,99.99
2018-05-31T01:23:25.536Z,99.99
2018-05-31T01:24:25.540Z,99.99
2018-05-31T01:25:25.975Z,99.99
2018-05-31T01:26:26.026Z,99.99
2018-05-31T01:27:25.746Z,99.99
2018-05-31T01:28:26.093Z,99.99
2018-05-31T01:29:26.096Z,99.99
2018-05-31T01:30:26.168Z,99.99
2018-05-31T01:31:25.891Z,99.99
2018-05-31T01:32:26.257Z,99.99
2018-05-31T01:33:25.958Z,99.99
2018-05-31T01:34:26.426Z,99.99
2018-05-31T01:35:26.908Z,99.99
2018-05-31T01:36:26.826Z,99.99
2018-05-31T01:37:26.941Z,99.99
2018-05-31T01:38:27.262Z,99.99
2018-05-31T01:39:27.221Z,99.99
2018-05-31T01:40:27.273Z,99.99
2018-05-31T01:41:26.999Z,99.99
2018-05-31T01:42:27.537Z,99.99
2018-05-31T01:43:27.585Z,99.99
2018-05-31T01:44:27.373Z,99.99
2018-05-31T01:45:27.345Z,99.99
2018-05-31T01:46:27.851Z,99.99
2018-05-31T01:47:27.917Z,99.99
2018-05-31T01:48:28.356Z,99.99
2018-05-31T01:49:27.873Z,99.99
2018-05-31T01:50:28.116Z,99.99
2018-05-31T01:51:28.652Z,99.99
2018-05-31T01:52:28.345Z,99.99
2018-05-31T01:53:29.147Z,99.99
2018-05-31T01:54:30.184Z,99.99
2018-05-31T01:55:29.837Z,99.99
2018-05-31T01:56:29.843Z,99.99
2018-05-31T01:57:29.896Z,99.99
2018-05-31T01:58:29.928Z,99.99
2018-05-31T01:59:29.656Z,99.99
2018-05-31T02:00:30.008Z,99.99
2018-05-31T02:01:30.042Z,99.99
2018-05-31T02:02:30.066Z,99.99
2018-05-31T02:03:30.515Z,99.99
2018-05-31T02:04:30.262Z,99.99
2018-05-31T02:05:30.545Z,99.99
2018-05-31T02:06:30.330Z,99.99
2018-05-31T02:07:30.563Z,99.99
2018-05-31T02:08:31.242Z,99.99
2018-05-31T02:09:31.158Z,99.99
2018-05-31T02:10:31.232Z,99.99
2018-05-31T02:11:31.193Z,99.99
2018-05-31T02:12:31.507Z,99.99
2018-05-31T02:13:32.107Z,99.99
2018-05-31T02:14:31.861Z,99.99
2018-05-31T02:15:31.331Z,99.99
2018-05-31T02:16:31.370Z,99.99
2018-05-31T02:17:31.924Z,99.99
2018-05-31T02:18:31.726Z,99.99
2018-05-31T02:19:32.355Z,99.99
2018-05-31T02:20:32.821Z,99.99
2018-05-31T02:21:33.080Z,99.99
2018-05-31T02:22:33.683Z,99.99
2018-05-31T02:23:33.068Z,99.99
2018-05-31T02:24:32.531Z,99.99
2018-05-31T02:25:32.975Z,99.99
2018-05-31T02:26:33.000Z,99.99
2018-05-31T02:27:33.367Z,99.99
2018-05-31T02:28:33.183Z,99.99
2018-05-31T02:29:32.733Z,99.99
2018-05-31T02:30:32.786Z,99.99
2018-05-31T02:31:33.453Z,99.99
2018-05-31T02:32:32.619Z,99.99
2018-05-31T02:33:32.973Z,99.99
2018-05-31T02:34:33.065Z,99.99
2018-05-31T02:35:32.728Z,99.99
2018-05-31T02:36:32.972Z,99.99
2018-05-31T02:37:32.717Z,99.99
2018-05-31T02:38:33.058Z,99.99
2018-05-31T02:39:33.108Z,99.99
2018-05-31T02:40:34.085Z,99.99
2018-05-31T02:41:33.776Z,99.99
2018-05-31T02:42:33.781Z,99.99
2018-05-31T02:43:33.888Z,99.99
2018-05-31T02:44:33.872Z,99.99
2018-05-31T02:45:33.897Z,99.99
2018-05-31T02:46:33.930Z,99.99
2018-05-31T02:47:33.952Z,99.99
2018-05-31T02:48:33.992Z,99.99
2018-05-31T02:49:34.259Z,99.99
2018-05-31T02:50:34.306Z,99.99
2018-05-31T02:51:34.327Z,99.99
2018-05-31T02:52:34.357Z,99.99
2018-05-31T02:53:34.104Z,99.99
2018-05-31T02:54:34.140Z,99.99
2018-05-31T02:55:34.268Z,99.99
2018-05-31T02:56:35.257Z,99.99
2018-05-31T02:57:35.001Z,99.99
2018-05-31T02:58:35.052Z,99.99
2018-05-31T02:59:35.732Z,99.99
2018-05-31T03:00:35.097Z,99.99
2018-05-31T03:01:35.124Z,99.99
2018-05-31T03:02:35.152Z,99.99
2018-05-31T03:03:35.346Z,99.99
2018-05-31T03:04:35.390Z,99.99
2018-05-31T03:05:35.563Z,99.99
2018-05-31T03:06:35.335Z,99.99
2018-05-31T03:07:35.688Z,99.99
2018-05-31T03:08:36.287Z,99.99
2018-05-31T03:09:35.712Z,99.99
2018-05-31T03:10:35.729Z,99.99
2018-05-31T03:11:35.787Z,99.99
2018-05-31T03:12:35.531Z,99.99
2018-05-31T03:13:35.563Z,99.99
2018-05-31T03:14:35.874Z,99.99
2018-05-31T03:15:36.068Z,99.99
2018-05-31T03:16:36.123Z,99.99
2018-05-31T03:17:36.725Z,99.99
2018-05-31T03:18:36.192Z,99.99
2018-05-31T03:19:35.933Z,99.99
2018-05-31T03:20:36.133Z,99.99
2018-05-31T03:21:36.865Z,99.99
2018-05-31T03:22:37.027Z,99.99
2018-05-31T03:23:37.499Z,99.99
2018-05-31T03:24:37.568Z,99.99
2018-05-31T03:25:37.545Z,99.99
2018-05-31T03:26:37.984Z,99.99
2018-05-31T03:27:37.613Z,99.99
2018-05-31T03:28:37.679Z,99.99
2018-05-31T03:29:37.849Z,99.99
2018-05-31T03:30:37.916Z,99.99
2018-05-31T03:31:37.927Z,99.99
2018-05-31T03:32:37.957Z,99.99
2018-05-31T03:33:38.011Z,99.99
2018-05-31T03:34:38.509Z,99.99
2018-05-31T03:35:38.977Z,99.99
2018-05-31T03:36:38.533Z,99.99
2018-05-31T03:37:38.584Z,99.99
2018-05-31T03:38:38.474Z,99.99
2018-05-31T03:39:38.536Z,99.99
2018-05-31T03:40:38.982Z,99.99
2018-05-31T03:41:39.011Z,99.99
2018-05-31T03:42:39.271Z,99.99
2018-05-31T03:43:39.262Z,99.99
2018-05-31T03:44:38.989Z,99.99
2018-05-31T03:45:39.316Z,99.99
2018-05-31T03:46:39.080Z,99.99
2018-05-31T03:47:39.828Z,99.99
2018-05-31T03:48:39.913Z,99.99
2018-05-31T03:49:39.804Z,99.99
2018-05-31T03:50:39.994Z,99.99
2018-05-31T03:51:40.412Z,99.99
2018-05-31T03:52:40.163Z,99.99
2018-05-31T03:53:40.663Z,99.99
2018-05-31T03:54:40.530Z,99.99
2018-05-31T03:55:40.556Z,99.99
2018-05-31T03:56:40.616Z,99.99
2018-05-31T03:57:40.353Z,99.99
2018-05-31T03:58:41.078Z,99.99
2018-05-31T03:59:41.111Z,99.99
2018-05-31T04:00:41.559Z,99.99
2018-05-31T04:01:41.588Z,99.99
2018-05-31T04:02:41.308Z,99.99
2018-05-31T04:03:41.822Z,99.99
2018-05-31T04:04:41.875Z,99.99
2018-05-31T04:05:41.881Z,99.99
2018-05-31T04:06:41.929Z,99.99
2018-05-31T04:07:41.670Z,99.99
2018-05-31T04:08:42.249Z,99.99
2018-05-31T04:09:42.453Z,99.99
2018-05-31T04:10:42.360Z,99.99
2018-05-31T04:11:42.368Z,99.99
2018-05-31T04:12:43.058Z,99.99
2018-05-31T04:13:42.478Z,99.99
2018-05-31T04:14:42.392Z,99.99
2018-05-31T04:15:42.543Z,99.99
2018-05-31T04:16:43.280Z,99.99
2018-05-31T04:17:43.458Z,99.99
2018-05-31T04:18:43.790Z,99.99
2018-05-31T04:19:43.800Z,99.68
2018-05-31T04:20:43.995Z,98.91
2018-05-31T04:21:44.742Z,98.77
2018-05-31T04:22:45.070Z,98.19
2018-05-31T04:23:45.109Z,97.38
2018-05-31T04:24:45.300Z,97.76
2018-05-31T04:25:44.896Z,98.1
2018-05-31T04:26:45.691Z,97.91
2018-05-31T04:27:45.496Z,97.33
2018-05-31T04:28:45.556Z,98
2018-05-31T04:29:46.125Z,98
2018-05-31T04:30:46.539Z,97.71
2018-05-31T04:31:46.113Z,97.81
2018-05-31T04:32:46.135Z,97.28
2018-05-31T04:33:46.287Z,96.42
2018-05-31T04:34:46.236Z,97.47
2018-05-31T04:35:45.966Z,97.19
2018-05-31T04:36:46.489Z,97.19
2018-05-31T04:37:46.480Z,97.09
2018-05-31T04:38:46.524Z,96.99
2018-05-31T04:39:47.151Z,97.28
2018-05-31T04:40:46.770Z,96.99
2018-05-31T04:41:46.813Z,97.57
2018-05-31T04:42:46.558Z,97.14
2018-05-31T04:43:46.865Z,97.47
2018-05-31T04:44:46.916Z,97.19
2018-05-31T04:45:47.981Z,97.19
2018-05-31T04:46:47.245Z,96.7
2018-05-31T04:47:48.180Z,96.7
2018-05-31T04:48:48.992Z,96.32
2018-05-31T04:49:47.994Z,96.32
2018-05-31T04:50:47.964Z,95.84
2018-05-31T04:51:48.060Z,95.98
2018-05-31T04:52:48.323Z,95.69
2018-05-31T04:53:48.102Z,95.5
2018-05-31T04:54:48.448Z,95.4
2018-05-31T04:55:48.141Z,95.21
2018-05-31T04:56:48.005Z,95.79
2018-05-31T04:57:47.945Z,95.12
2018-05-31T04:58:48.275Z,94.92
2018-05-31T04:59:48.271Z,95.21
2018-05-31T05:00:48.339Z,94.54
2018-05-31T05:01:48.870Z,94.49
2018-05-31T05:02:49.456Z,94.29
2018-05-31T05:03:49.132Z,93.52
2018-05-31T05:04:49.436Z,93.72
2018-05-31T05:05:48.905Z,93.72
2018-05-31T05:06:49.291Z,93.24
2018-05-31T05:07:48.981Z,93.04
2018-05-31T05:08:49.019Z,93.14
2018-05-31T05:09:48.740Z,92.94
2018-05-31T05:10:49.075Z,92.61
2018-05-31T05:11:49.319Z,92.71
2018-05-31T05:12:48.861Z,92.22
2018-05-31T05:13:49.324Z,91.55
2018-05-31T05:14:49.632Z,91.11
2018-05-31T05:15:50.323Z,90.05
2018-05-31T05:16:50.777Z,89.76
2018-05-31T05:17:50.804Z,89.9
2018-05-31T05:18:50.851Z,89.61
2018-05-31T05:19:50.900Z,89.61
2018-05-31T05:20:50.932Z,89.95
2018-05-31T05:21:51.090Z,89.76
2018-05-31T05:22:51.468Z,90.05
2018-05-31T05:23:51.180Z,89.42
2018-05-31T05:24:51.674Z,88.36
2018-05-31T05:25:52.274Z,88.21
2018-05-31T05:26:51.719Z,87.05
2018-05-31T05:27:51.774Z,87.19
2018-05-31T05:28:52.226Z,86.9
2018-05-31T05:29:52.228Z,86.32
2018-05-31T05:30:52.217Z,85.4
2018-05-31T05:31:52.653Z,84.82
2018-05-31T05:32:53.111Z,84.43
2018-05-31T05:33:53.493Z,83.22
2018-05-31T05:34:54.027Z,82.1
2018-05-31T05:35:53.180Z,80.98
2018-05-31T05:36:53.500Z,80.05
2018-05-31T05:37:53.241Z,78.74
2018-05-31T05:38:53.734Z,78.34
2018-05-31T05:39:53.759Z,77.96
2018-05-31T05:40:53.798Z,77.86
2018-05-31T05:41:53.820Z,78.25
2018-05-31T05:42:54.296Z,78.99
2018-05-31T05:43:54.775Z,79.37
2018-05-31T05:44:54.355Z,79.43
2018-05-31T05:45:54.435Z,80.49
2018-05-31T05:46:54.689Z,81.27
2018-05-31T05:47:54.685Z,81.52
2018-05-31T05:48:54.851Z,81.52
2018-05-31T05:49:55.004Z,81.71
2018-05-31T05:50:54.747Z,81.32
2018-05-31T05:51:55.193Z,80.36
2018-05-31T05:52:56.616Z,78.66
2018-05-31T05:53:56.117Z,77.09
2018-05-31T05:54:56.141Z,74.7
2018-05-31T05:55:56.228Z,74.16
2018-05-31T05:56:56.232Z,74.49
2018-05-31T05:57:56.711Z,73.36
2018-05-31T05:58:56.772Z,73.26
2018-05-31T05:59:56.776Z,73.52
2018-05-31T06:00:56.620Z,74.74
2018-05-31T06:01:57.045Z,75.42
2018-05-31T06:02:57.485Z,75.38
2018-05-31T06:03:57.603Z,76.45
2018-05-31T06:04:57.762Z,75.09
2018-05-31T06:05:58.107Z,76.54
2018-05-31T06:06:57.636Z,76.45
2018-05-31T06:07:57.391Z,76.06
2018-05-31T06:08:57.980Z,76.06
2018-05-31T06:09:58.214Z,75.67
2018-05-31T06:10:58.639Z,74.8
2018-05-31T06:11:58.070Z,75.61
2018-05-31T06:12:57.816Z,74.8
2018-05-31T06:13:58.163Z,74.35
2018-05-31T06:14:58.761Z,74.26
2018-05-31T06:15:58.133Z,72.35
2018-05-31T06:16:58.635Z,71.03
2018-05-31T06:17:58.349Z,69.06
2018-05-31T06:18:58.585Z,66.79
2018-05-31T06:19:58.530Z,64.62
2018-05-31T06:20:58.521Z,63.22
2018-05-31T06:21:58.166Z,61.72
2018-05-31T06:22:58.762Z,59.64
2018-05-31T06:23:58.817Z,58.98
2018-05-31T06:24:58.837Z,57.28
2018-05-31T06:25:58.871Z,56.23
2018-05-31T06:26:58.915Z,56.16
2018-05-31T06:27:58.977Z,54.85
2018-05-31T06:28:59.497Z,54.19
2018-05-31T06:29:59.038Z,53.63
2018-05-31T06:30:59.088Z,53.45
2018-05-31T06:31:59.110Z,53.48
2018-05-31T06:32:59.355Z,52.69
2018-05-31T06:33:59.649Z,51.42
2018-05-31T06:34:59.864Z,50.66
2018-05-31T06:36:00.102Z,49.33
2018-05-31T06:37:00.145Z,49.23
2018-05-31T06:38:00.199Z,49.21
2018-05-31T06:39:00.242Z,48.65
2018-05-31T06:39:59.988Z,47.96
2018-05-31T06:41:00.323Z,48.72
2018-05-31T06:42:00.069Z,48.5
2018-05-31T06:43:00.543Z,48.72
2018-05-31T06:44:00.467Z,48.05
2018-05-31T06:45:00.712Z,47.09
2018-05-31T06:46:00.985Z,47.31
2018-05-31T06:47:01.185Z,46.72
2018-05-31T06:48:01.664Z,47.02
2018-05-31T06:49:01.702Z,46.6
2018-05-31T06:50:01.473Z,46.7
2018-05-31T06:51:01.841Z,46.8
2018-05-31T06:52:01.892Z,46.88
2018-05-31T06:53:01.656Z,46.88
2018-05-31T06:54:01.965Z,47.17
2018-05-31T06:55:02.003Z,47.34
2018-05-31T06:56:02.127Z,47.91
2018-05-31T06:57:02.097Z,47.81
2018-05-31T06:58:02.147Z,47.34
2018-05-31T06:59:02.092Z,47.19
2018-05-31T07:00:15.299Z,46.43
2018-05-31T07:01:02.610Z,45.17
2018-05-31T07:02:02.654Z,45.59
2018-05-31T07:03:03.153Z,44.7
2018-05-31T07:04:03.356Z,45.56
2018-05-31T07:05:03.515Z,45.94
2018-05-31T07:06:03.746Z,46.7
2018-05-31T07:07:04.300Z,47.07
2018-05-31T07:08:03.997Z,46.5
2018-05-31T07:09:04.257Z,46.68
2018-05-31T07:10:04.613Z,46.78
2018-05-31T07:11:05.292Z,47.15
2018-05-31T07:12:04.807Z,46.8
2018-05-31T07:13:05.054Z,46.03
2018-05-31T07:14:05.554Z,45.19
2018-05-31T07:15:05.575Z,45.21
2018-05-31T07:16:05.923Z,45.53
2018-05-31T07:17:06.196Z,44.25
2018-05-31T07:18:06.238Z,43.66
2018-05-31T07:19:06.288Z,44.65
2018-05-31T07:20:06.609Z,44
2018-05-31T07:21:06.844Z,44.29
2018-05-31T07:22:06.924Z,44.57
2018-05-31T07:23:06.998Z,43.96
2018-05-31T07:24:06.701Z,43.29
2018-05-31T07:25:07.075Z,43.21
2018-05-31T07:26:07.665Z,42.34
2018-05-31T07:27:07.711Z,43.52
2018-05-31T07:28:08.003Z,42.91
2018-05-31T07:29:08.205Z,42.74
2018-05-31T07:30:08.508Z,43.73
2018-05-31T07:31:08.483Z,42.44
2018-05-31T07:32:09.180Z,42.19
2018-05-31T07:33:09.184Z,41.24
2018-05-31T07:34:09.437Z,40.64
2018-05-31T07:35:09.927Z,39.79
2018-05-31T07:36:09.937Z,40.58
2018-05-31T07:37:10.299Z,40.78
2018-05-31T07:38:10.458Z,40.84
2018-05-31T07:39:10.886Z,41.04
2018-05-31T07:40:10.744Z,41.06
2018-05-31T07:41:10.796Z,40.76
2018-05-31T07:42:10.804Z,40.68
2018-05-31T07:43:10.986Z,40.98
2018-05-31T07:44:10.698Z,40.78
2018-05-31T07:45:10.974Z,39.69
2018-05-31T07:46:11.035Z,39.61
2018-05-31T07:47:11.124Z,39.04
2018-05-31T07:48:11.405Z,39.28
2018-05-31T07:49:11.659Z,38.02
2018-05-31T07:50:11.736Z,38.6
2018-05-31T07:51:11.507Z,38
2018-05-31T07:52:11.787Z,38.58
2018-05-31T07:53:12.070Z,39.25
2018-05-31T07:54:12.279Z,38.82
2018-05-31T07:55:12.707Z,39.4
2018-05-31T07:56:13.012Z,39.67
2018-05-31T07:57:13.027Z,39
2018-05-31T07:58:13.392Z,39.4
2018-05-31T07:59:13.201Z,39.22
2018-05-31T08:00:17.625Z,39.53
2018-05-31T08:01:17.681Z,39.25
2018-05-31T08:02:17.730Z,39.23
2018-05-31T08:03:18.244Z,39.79
2018-05-31T08:04:18.415Z,40.09
2018-05-31T08:05:18.467Z,39
2018-05-31T08:06:18.584Z,39.2
2018-05-31T08:07:18.856Z,39.02
2018-05-31T08:08:18.904Z,39.02
2018-05-31T08:09:18.935Z,39.02
2018-05-31T08:10:18.720Z,38.32
2018-05-31T08:11:19.016Z,38.54
2018-05-31T08:12:19.224Z,36.98
2018-05-31T08:13:19.438Z,37.09
2018-05-31T08:14:19.482Z,37.85
2018-05-31T08:15:19.535Z,37.83
2018-05-31T08:16:19.447Z,38.32
2018-05-31T08:17:19.636Z,37.37
2018-05-31T08:18:19.979Z,36.69
2018-05-31T08:19:20.015Z,37.07
2018-05-31T08:20:20.151Z,37.69
2018-05-31T08:21:20.106Z,37.75
2018-05-31T08:22:20.372Z,38.98
2018-05-31T08:23:20.348Z,39.08
2018-05-31T08:24:20.399Z,37.93
2018-05-31T08:25:20.578Z,37.95
2018-05-31T08:26:22.255Z,38.8
2018-05-31T08:27:21.440Z,38.13
2018-05-31T08:28:21.474Z,38.01
2018-05-31T08:29:21.559Z,37.96
2018-05-31T08:30:21.573Z,36.71
2018-05-31T08:31:21.684Z,36.35
2018-05-31T08:32:21.691Z,36.23
2018-05-31T08:33:21.759Z,35.52
2018-05-31T08:34:21.791Z,35.83
2018-05-31T08:35:21.982Z,36.69
2018-05-31T08:36:22.053Z,37.26
2018-05-31T08:37:22.243Z,37.77
2018-05-31T08:38:22.402Z,36.77
2018-05-31T08:39:22.894Z,36.91
2018-05-31T08:40:22.656Z,36.02
2018-05-31T08:41:23.094Z,35.62
2018-05-31T08:42:23.251Z,35.64
2018-05-31T08:43:22.996Z,35.52
2018-05-31T08:44:22.931Z,35.92
2018-05-31T08:45:22.922Z,36.32
2018-05-31T08:46:22.953Z,36.22
2018-05-31T08:47:23.258Z,36.04
2018-05-31T08:48:23.468Z,35.55
2018-05-31T08:49:23.615Z,35.77
2018-05-31T08:50:23.224Z,35.83
2018-05-31T08:51:23.284Z,36.04
2018-05-31T08:52:23.358Z,36.41
2018-05-31T08:53:23.784Z,36.9
2018-05-31T08:54:24.061Z,36.64
2018-05-31T08:55:24.296Z,37.34
2018-05-31T08:56:24.164Z,36.84
2018-05-31T08:57:24.191Z,37.34
2018-05-31T08:58:24.174Z,36.96
2018-05-31T08:59:24.180Z,36.66
2018-05-31T09:00:24.234Z,36.66
2018-05-31T09:01:24.279Z,35.71
2018-05-31T09:02:24.394Z,35.54
2018-05-31T09:03:24.659Z,35.67
2018-05-31T09:04:24.436Z,35.41
2018-05-31T09:05:24.717Z,34.63
2018-05-31T09:06:24.919Z,34.45
2018-05-31T09:07:24.967Z,34.73
2018-05-31T09:08:25.470Z,35.29
2018-05-31T09:09:25.245Z,35.85
2018-05-31T09:10:25.563Z,36.13
2018-05-31T09:11:25.334Z,36.32
2018-05-31T09:12:25.375Z,36.2
2018-05-31T09:13:25.883Z,35.72
2018-05-31T09:14:26.356Z,35.54
2018-05-31T09:15:26.584Z,35.27
2018-05-31T09:16:26.900Z,35.1
2018-05-31T09:17:26.951Z,34.89
2018-05-31T09:18:27.005Z,34.8
2018-05-31T09:19:27.049Z,35.27
2018-05-31T09:20:27.296Z,35.54
2018-05-31T09:21:27.525Z,35.94
2018-05-31T09:22:27.566Z,35.64
2018-05-31T09:23:27.636Z,35.52
2018-05-31T09:24:27.660Z,35.85
2018-05-31T09:25:27.602Z,35.31
2018-05-31T09:26:28.185Z,34.99
2018-05-31T09:27:28.383Z,35.19
2018-05-31T09:28:28.400Z,34.92
2018-05-31T09:29:28.166Z,34.86
2018-05-31T09:30:28.552Z,34.46
2018-05-31T09:31:28.498Z,34.15
2018-05-31T09:32:29.094Z,34.84
2018-05-31T09:33:28.563Z,34.88
2018-05-31T09:34:28.579Z,34.45
2018-05-31T09:35:28.342Z,34.22
2018-05-31T09:36:28.896Z,33.55
2018-05-31T09:37:29.187Z,33.28
2018-05-31T09:38:29.248Z,33.03
2018-05-31T09:39:29.299Z,32.65
2018-05-31T09:40:29.505Z,33.81
2018-05-31T09:41:29.280Z,34.27
2018-05-31T09:42:29.798Z,33.15
2018-05-31T09:43:30.348Z,32.78
2018-05-31T09:44:30.395Z,32.52
2018-05-31T09:45:30.165Z,32.53
2018-05-31T09:46:30.694Z,33.7
2018-05-31T09:47:30.429Z,34.16
2018-05-31T09:48:30.974Z,33.15
2018-05-31T09:49:30.723Z,32.98
2018-05-31T09:50:31.043Z,32.4
2018-05-31T09:51:31.294Z,32.9
2018-05-31T09:52:31.489Z,33.1
2018-05-31T09:53:31.951Z,33.2
2018-05-31T09:54:32.173Z,33.85
2018-05-31T09:55:32.578Z,33.37
2018-05-31T09:56:32.632Z,33.93
2018-05-31T09:57:32.643Z,34.89
2018-05-31T09:58:32.697Z,34.2
2018-05-31T09:59:32.732Z,33.8
2018-05-31T10:00:32.769Z,33.3
2018-05-31T10:01:33.170Z,33.2
2018-05-31T10:02:33.333Z,33.44
2018-05-31T10:03:33.501Z,33.72
2018-05-31T10:04:33.600Z,33.3
2018-05-31T10:05:33.573Z,33.81
2018-05-31T10:06:33.622Z,34
2018-05-31T10:07:33.798Z,34.1
2018-05-31T10:08:33.845Z,34.56
2018-05-31T10:09:33.988Z,34.84
2018-05-31T10:10:34.396Z,34.27
2018-05-31T10:11:34.450Z,34.4
2018-05-31T10:12:34.874Z,34.1
2018-05-31T10:13:34.953Z,33.92
2018-05-31T10:14:34.870Z,33.23
2018-05-31T10:15:35.206Z,33.14
2018-05-31T10:16:35.154Z,32.35
2018-05-31T10:17:35.618Z,32.67
2018-05-31T10:18:35.486Z,31.99
2018-05-31T10:19:35.270Z,32.09
2018-05-31T10:20:35.718Z,32.59
2018-05-31T10:21:36.190Z,32.48
2018-05-31T10:22:36.366Z,32.56
2018-05-31T10:23:36.396Z,32.62
2018-05-31T10:24:36.645Z,33.29
2018-05-31T10:25:36.907Z,33.6
2018-05-31T10:26:37.391Z,33.81
2018-05-31T10:27:37.973Z,31.74
2018-05-31T10:28:37.486Z,31.79
2018-05-31T10:29:37.926Z,31.32
2018-05-31T10:30:38.261Z,31.32
2018-05-31T10:31:38.038Z,32.18
2018-05-31T10:32:38.342Z,31.39
2018-05-31T10:33:38.603Z,31.79
2018-05-31T10:34:38.730Z,31.51
2018-05-31T10:35:38.616Z,32.18
2018-05-31T10:36:38.815Z,32.75
2018-05-31T10:37:38.831Z,33.12
2018-05-31T10:38:38.843Z,33.69
2018-05-31T10:39:38.891Z,34.05
2018-05-31T10:40:38.910Z,33.76
2018-05-31T10:41:38.702Z,33.57
2018-05-31T10:42:39.911Z,32.53
2018-05-31T10:43:39.545Z,31.77
2018-05-31T10:44:39.988Z,31.22
2018-05-31T10:45:39.405Z,31.63
2018-05-31T10:46:40.593Z,31.99
2018-05-31T10:47:40.216Z,31.82
2018-05-31T10:48:40.474Z,32.37
2018-05-31T10:49:39.965Z,31.86
2018-05-31T10:50:40.684Z,32.26
2018-05-31T10:51:40.704Z,31.29
2018-05-31T10:52:40.910Z,31.22
2018-05-31T10:53:40.609Z,30.74
2018-05-31T10:54:40.577Z,31.02
2018-05-31T10:55:41.044Z,30.42
2018-05-31T10:56:40.888Z,30.72
2018-05-31T10:57:41.236Z,31.09
2018-05-31T10:58:41.081Z,31.18
2018-05-31T10:59:41.350Z,31.69
2018-05-31T11:00:41.025Z,31.86
2018-05-31T11:01:41.376Z,31.48
2018-05-31T11:02:41.784Z,31.06
2018-05-31T11:03:41.999Z,31.26
2018-05-31T11:04:42.522Z,31.46
2018-05-31T11:05:43.087Z,31.26
2018-05-31T11:06:43.099Z,31.26
2018-05-31T11:07:43.107Z,30.59
2018-05-31T11:08:43.279Z,30.71
2018-05-31T11:09:43.156Z,31.29
2018-05-31T11:10:43.215Z,31.83
2018-05-31T11:11:43.217Z,32.21
2018-05-31T11:12:43.097Z,32.38
2018-05-31T11:13:43.194Z,31.96
2018-05-31T11:14:43.323Z,32.28
2018-05-31T11:15:43.382Z,33.06
2018-05-31T11:16:44.167Z,33.55
2018-05-31T11:17:44.078Z,33.17
2018-05-31T11:18:44.239Z,32.46
2018-05-31T11:19:44.335Z,33.17
2018-05-31T11:20:44.346Z,32.96
2018-05-31T11:21:44.532Z,33.09
2018-05-31T11:22:44.172Z,32.6
2018-05-31T11:23:44.536Z,32.59
2018-05-31T11:24:44.996Z,33.15
2018-05-31T11:25:44.892Z,33.31
2018-05-31T11:26:45.451Z,33.52
2018-05-31T11:27:45.462Z,33.61
2018-05-31T11:28:45.528Z,33.04
2018-05-31T11:29:45.300Z,33.15
2018-05-31T11:30:46.000Z,34.91
2018-05-31T11:31:46.234Z,36.59
2018-05-31T11:32:46.050Z,38.06
2018-05-31T11:33:45.999Z,39.18
2018-05-31T11:34:46.597Z,40.01
2018-05-31T11:35:46.465Z,41.17
2018-05-31T11:36:46.540Z,41.72
2018-05-31T11:37:46.289Z,42.76
2018-05-31T11:38:46.857Z,43.41
2018-05-31T11:39:46.743Z,43.48
2018-05-31T11:40:46.778Z,44.46
2018-05-31T11:41:46.817Z,45.03
2018-05-31T11:42:46.555Z,45.42
2018-05-31T11:43:46.750Z,45.23
2018-05-31T11:44:47.240Z,44.73
2018-05-31T11:45:47.099Z,44.44
2018-05-31T11:46:47.434Z,44.54
2018-05-31T11:47:47.467Z,44.23
2018-05-31T11:48:47.882Z,45.1
2018-05-31T11:49:47.965Z,45.97
2018-05-31T11:50:48.648Z,46.16
2018-05-31T11:51:48.715Z,46.55
2018-05-31T11:52:49.033Z,45.97
2018-05-31T11:53:48.721Z,45.76
2018-05-31T11:54:49.161Z,46.06
2018-05-31T11:55:49.600Z,45.57
2018-05-31T11:56:50.017Z,45.55
2018-05-31T11:57:50.236Z,46.04
2018-05-31T11:58:50.136Z,46.53
2018-05-31T11:59:50.154Z,46.33
2018-05-31T12:00:50.180Z,46.33
2018-05-31T12:01:49.918Z,46.33
2018-05-31T12:02:50.295Z,46.72
2018-05-31T12:03:50.641Z,46.62
2018-05-31T12:04:50.432Z,45.94
2018-05-31T12:05:50.391Z,46.23
2018-05-31T12:06:50.843Z,46.53
2018-05-31T12:07:51.052Z,46.53
2018-05-31T12:08:51.599Z,45.84
2018-05-31T12:09:51.753Z,46.23
2018-05-31T12:10:52.430Z,46.45
2018-05-31T12:11:51.970Z,46.94
2018-05-31T12:12:53.242Z,46.36
2018-05-31T12:13:53.048Z,46.45
2018-05-31T12:14:53.050Z,46.36
2018-05-31T12:15:53.461Z,46.43
2018-05-31T12:16:53.877Z,46.43
2018-05-31T12:17:54.371Z,46.43
2018-05-31T12:18:53.683Z,46.72
2018-05-31T12:19:54.076Z,46.23
2018-05-31T12:20:54.345Z,46.23
2018-05-31T12:21:54.455Z,46.23
2018-05-31T12:22:54.777Z,46.53
2018-05-31T12:23:55.036Z,46.5
2018-05-31T12:24:55.053Z,46.5
2018-05-31T12:25:55.509Z,46.7
2018-05-31T12:26:55.516Z,46.6
2018-05-31T12:27:56.522Z,46.8
2018-05-31T12:28:56.308Z,46.6
2018-05-31T12:29:55.911Z,46.89
2018-05-31T12:30:56.262Z,46.5
2018-05-31T12:31:56.306Z,46.5
2018-05-31T12:32:56.320Z,46.72
2018-05-31T12:33:56.365Z,46.14
2018-05-31T12:34:56.408Z,46.23
2018-05-31T12:35:56.833Z,45.65
2018-05-31T12:36:56.555Z,45.65
2018-05-31T12:37:56.868Z,46.23
2018-05-31T12:38:56.853Z,45.65
2018-05-31T12:39:56.991Z,46.14
2018-05-31T12:40:57.261Z,46.53
2018-05-31T12:41:57.398Z,46.82
2018-05-31T12:42:57.406Z,46.82
2018-05-31T12:43:57.459Z,46.62
2018-05-31T12:44:57.221Z,46.62
2018-05-31T12:45:57.923Z,46.72
2018-05-31T12:46:57.602Z,46.23
2018-05-31T12:47:57.889Z,46.33
2018-05-31T12:48:57.835Z,46.04
2018-05-31T12:49:58.354Z,46.72
2018-05-31T12:50:58.341Z,46.33
2018-05-31T12:51:58.588Z,45.57
2018-05-31T12:52:59.016Z,46.43
2018-05-31T12:53:59.270Z,46.62
2018-05-31T12:54:59.469Z,46.72
2018-05-31T12:55:59.609Z,46.53
2018-05-31T12:56:59.494Z,47.11